createdAt,value
2019-03-04T00:00:44.339Z,79.77
2019-03-04T00:03:15.245Z,127.37
2019-03-04T00:05:45.878Z,96.47
2019-03-04T00:08:15.074Z,84.53
2019-03-04T00:10:44.870Z,79.73
2019-03-04T00:13:14.077Z,93.93
2019-03-04T00:15:43.295Z,110.20
2019-03-04T00:18:12.697Z,76.07
2019-03-04T00:20:42.049Z,105.27
2019-03-04T00:23:11.333Z,83.17
2019-03-04T00:25:41.329Z,89.07
2019-03-04T00:28:10.719Z,70.30
2019-03-04T00:30:40.175Z,75.40
2019-03-04T00:33:09.541Z,69.60
2019-03-04T00:35:38.902Z,75.07
2019-03-04T00:38:08.332Z,75.00
2019-03-04T00:40:37.610Z,94.93
2019-03-04T00:43:06.999Z,71.77
2019-03-04T00:45:36.201Z,82.57
2019-03-04T00:48:05.409Z,76.27
2019-03-04T00:50:34.789Z,134.37
2019-03-04T00:53:04.078Z,107.93
2019-03-04T00:55:33.370Z,72.87
2019-03-04T00:58:02.662Z,91.03
2019-03-04T01:00:31.967Z,80.33
2019-03-04T01:03:01.378Z,83.83
2019-03-04T01:05:30.716Z,79.23
2019-03-04T01:08:00.102Z,74.30
2019-03-04T01:10:29.497Z,74.40
2019-03-04T01:12:58.730Z,74.13
2019-03-04T01:15:28.008Z,72.47
2019-03-04T01:17:57.390Z,71.03
2019-03-04T01:20:26.655Z,73.60
2019-03-04T01:22:55.916Z,83.10
2019-03-04T01:25:25.233Z,73.60
2019-03-04T01:27:54.511Z,77.47
2019-03-04T01:30:24.408Z,68.37
2019-03-04T01:32:53.862Z,78.10
2019-03-04T01:35:23.088Z,82.97
2019-03-04T01:37:52.354Z,93.50
2019-03-04T01:40:23.351Z,84.63
2019-03-04T01:42:52.642Z,75.53
2019-03-04T01:45:21.993Z,88.73
2019-03-04T01:47:51.231Z,70.27
2019-03-04T01:50:20.936Z,70.70
2019-03-04T01:52:50.321Z,66.27
2019-03-04T01:55:19.570Z,66.33
2019-03-04T01:57:48.928Z,70.47
2019-03-04T02:00:20.878Z,92.60
2019-03-04T02:02:50.311Z,73.17
2019-03-04T02:05:20.203Z,94.10
2019-03-04T02:07:49.671Z,89.17
2019-03-04T02:10:19.865Z,60.17
2019-03-04T02:12:49.364Z,81.27
2019-03-04T02:15:19.907Z,66.03
2019-03-04T02:17:49.394Z,64.30
2019-03-04T02:20:18.828Z,70.57
2019-03-04T02:22:48.192Z,66.33
2019-03-04T02:25:21.050Z,92.33
2019-03-04T02:27:53.444Z,60.70
2019-03-04T02:30:25.440Z,80.03
2019-03-04T02:32:54.782Z,75.07
2019-03-04T02:35:24.080Z,132.17
2019-03-04T02:37:53.441Z,79.20
2019-03-04T02:40:22.798Z,72.27
2019-03-04T02:42:52.067Z,60.77
2019-03-04T02:45:21.493Z,53.70
2019-03-04T02:47:50.830Z,58.73
2019-03-04T02:50:20.233Z,85.13
2019-03-04T02:52:49.617Z,63.67
2019-03-04T02:55:18.955Z,66.27
2019-03-04T02:57:48.236Z,60.40
2019-03-04T03:00:18.547Z,65.13
2019-03-04T03:02:48.298Z,62.43
2019-03-04T03:05:17.627Z,136.40
2019-03-04T03:07:47.070Z,98.00
2019-03-04T03:10:16.260Z,60.90
2019-03-04T03:12:45.609Z,58.93
2019-03-04T03:15:18.208Z,55.43
2019-03-04T03:17:47.413Z,73.80
2019-03-04T03:20:16.970Z,68.20
2019-03-04T03:22:46.281Z,79.33
2019-03-04T03:25:16.143Z,63.47
2019-03-04T03:27:45.361Z,61.23
2019-03-04T03:30:16.472Z,64.13
2019-03-04T03:32:46.336Z,53.17
2019-03-04T03:35:15.605Z,57.77
2019-03-04T03:37:45.990Z,64.07
2019-03-04T03:40:17.738Z,65.80
2019-03-04T03:42:47.115Z,52.80
2019-03-04T03:45:16.785Z,55.00
2019-03-04T03:47:46.075Z,71.53
2019-03-04T03:50:16.867Z,59.57
2019-03-04T03:52:46.472Z,66.43
2019-03-04T03:55:16.645Z,59.97
2019-03-04T03:57:46.048Z,61.87
2019-03-04T04:00:17.684Z,61.07
2019-03-04T04:02:46.934Z,74.57
2019-03-04T04:05:16.218Z,112.73
2019-03-04T04:07:45.582Z,81.23
2019-03-04T04:10:17.319Z,54.17
2019-03-04T04:12:46.576Z,64.60
2019-03-04T04:15:16.734Z,63.17
2019-03-04T04:17:46.058Z,133.60
2019-03-04T04:20:15.498Z,67.80
2019-03-04T04:22:44.824Z,56.20
2019-03-04T04:25:14.601Z,51.30
2019-03-04T04:27:43.823Z,61.83
2019-03-04T04:30:16.397Z,56.50
2019-03-04T04:32:45.687Z,96.27
2019-03-04T04:35:15.094Z,69.33
2019-03-04T04:37:44.421Z,224.87
2019-03-04T04:40:14.138Z,73.10
2019-03-04T04:42:43.361Z,69.83
2019-03-04T04:45:12.657Z,52.00
2019-03-04T04:47:43.216Z,73.43
2019-03-04T04:50:15.432Z,91.13
2019-03-04T04:52:44.761Z,100.73
2019-03-04T04:55:15.128Z,46.77
2019-03-04T04:57:44.465Z,57.03
2019-03-04T05:00:16.418Z,186.67
2019-03-04T05:02:45.813Z,97.67
2019-03-04T05:05:15.030Z,54.63
2019-03-04T05:07:44.412Z,70.37
2019-03-04T05:10:16.863Z,75.80
2019-03-04T05:12:46.354Z,54.97
2019-03-04T05:15:16.498Z,51.00
2019-03-04T05:17:45.880Z,50.80
2019-03-04T05:20:18.256Z,53.73
2019-03-04T05:22:47.619Z,59.53
2019-03-04T05:25:17.000Z,57.30
2019-03-04T05:27:46.303Z,57.97
2019-03-04T05:30:17.998Z,56.97
2019-03-04T05:32:47.323Z,55.67
2019-03-04T05:35:16.686Z,79.60
2019-03-04T05:37:46.009Z,51.73
2019-03-04T05:40:17.716Z,48.13
2019-03-04T05:42:47.154Z,46.90
2019-03-04T05:45:17.530Z,55.43
2019-03-04T05:47:46.904Z,65.63
2019-03-04T05:50:19.482Z,75.63
2019-03-04T05:52:48.842Z,64.27
2019-03-04T05:55:18.162Z,69.47
2019-03-04T05:57:47.574Z,90.67
2019-03-04T06:00:20.466Z,102.07
2019-03-04T06:02:51.393Z,133.20
2019-03-04T06:05:20.631Z,64.57
2019-03-04T06:07:51.633Z,79.77
2019-03-04T06:10:21.241Z,81.57
2019-03-04T06:12:50.698Z,58.67
2019-03-04T06:15:21.058Z,62.30
2019-03-04T06:17:50.310Z,69.40
2019-03-04T06:20:20.225Z,89.23
2019-03-04T06:22:49.789Z,114.17
2019-03-04T06:25:21.613Z,80.10
2019-03-04T06:27:50.927Z,44.27
2019-03-04T06:30:22.233Z,48.37
2019-03-04T06:32:51.603Z,53.67
2019-03-04T06:35:20.996Z,65.17
2019-03-04T06:37:50.338Z,53.53
2019-03-04T06:40:20.677Z,60.70
2019-03-04T06:42:50.128Z,60.43
2019-03-04T06:45:20.626Z,54.40
2019-03-04T06:47:49.960Z,43.70
2019-03-04T06:50:22.563Z,56.83
2019-03-04T06:52:51.934Z,55.37
2019-03-04T06:55:24.452Z,79.50
2019-03-04T06:57:53.770Z,48.13
2019-03-04T07:00:26.354Z,43.00
2019-03-04T07:02:55.601Z,38.70
2019-03-04T07:05:28.171Z,113.00
2019-03-04T07:07:57.555Z,56.47
2019-03-04T07:10:26.900Z,45.03
2019-03-04T07:12:56.271Z,95.07
2019-03-04T07:15:25.782Z,38.30
2019-03-04T07:17:55.203Z,36.03
2019-03-04T07:20:24.432Z,40.40
2019-03-04T07:22:53.778Z,39.40
2019-03-04T07:25:23.171Z,35.50
2019-03-04T07:27:52.579Z,49.13
2019-03-04T07:30:21.856Z,64.23
2019-03-04T07:32:51.166Z,67.27
2019-03-04T07:35:20.419Z,91.30
2019-03-04T07:37:53.163Z,79.07
2019-03-04T07:40:22.503Z,47.60
2019-03-04T07:42:51.780Z,36.70
2019-03-04T07:45:21.053Z,43.53
2019-03-04T07:47:50.511Z,50.27
2019-03-04T07:50:19.854Z,34.10
2019-03-04T07:52:52.490Z,67.60
2019-03-04T07:55:21.768Z,40.43
2019-03-04T07:57:51.137Z,38.67
2019-03-04T08:00:20.364Z,44.80
2019-03-04T08:02:50.248Z,36.90
2019-03-04T08:05:19.584Z,42.37
2019-03-04T08:07:52.229Z,30.57
2019-03-04T08:10:24.895Z,36.77
2019-03-04T08:12:58.559Z,32.10
2019-03-04T08:15:29.622Z,39.03
2019-03-04T08:17:59.013Z,28.93
2019-03-04T08:20:28.418Z,47.20
2019-03-04T08:22:57.629Z,31.07
2019-03-04T08:25:26.954Z,31.93
2019-03-04T08:27:56.350Z,32.10
2019-03-04T08:30:25.869Z,38.13
2019-03-04T08:32:55.359Z,34.63
2019-03-04T08:35:24.732Z,63.73
2019-03-04T08:37:54.163Z,64.60
2019-03-04T08:40:23.568Z,35.73
2019-03-04T08:42:52.847Z,35.67
2019-03-04T08:45:22.209Z,29.07
2019-03-04T08:47:51.568Z,35.80
2019-03-04T08:50:20.964Z,43.57
2019-03-04T08:52:50.365Z,39.07
2019-03-04T08:55:19.779Z,32.27
2019-03-04T08:57:49.176Z,37.23
2019-03-04T09:00:21.554Z,41.47
2019-03-04T09:02:50.951Z,30.17
2019-03-04T09:05:20.185Z,29.23
2019-03-04T09:07:49.553Z,77.50
2019-03-04T09:10:22.018Z,61.23
2019-03-04T09:12:51.310Z,32.53
2019-03-04T09:15:20.702Z,29.67
2019-03-04T09:17:49.999Z,26.77
2019-03-04T09:20:19.840Z,35.83
2019-03-04T09:22:49.347Z,29.70
2019-03-04T09:25:30.015Z,35.50
2019-03-04T09:27:53.353Z,52.23
2019-03-04T09:30:23.065Z,40.00
2019-03-04T09:32:52.380Z,56.43
2019-03-04T09:35:21.656Z,59.40
2019-03-04T09:37:51.008Z,30.90
2019-03-04T09:40:22.828Z,27.77
2019-03-04T09:42:52.549Z,22.57
2019-03-04T09:45:21.899Z,40.53
2019-03-04T09:47:51.250Z,31.57
2019-03-04T09:50:22.074Z,37.23
2019-03-04T09:52:51.363Z,29.07
2019-03-04T09:55:21.100Z,23.40
2019-03-04T09:57:50.396Z,25.07
2019-03-04T10:00:23.175Z,42.87
2019-03-04T10:02:56.063Z,76.17
2019-03-04T10:05:28.644Z,32.27
2019-03-04T10:08:01.303Z,109.90
2019-03-04T10:10:33.998Z,28.93
2019-03-04T10:13:06.616Z,25.10
2019-03-04T10:15:39.175Z,44.87
2019-03-04T10:18:11.625Z,25.17
2019-03-04T10:20:44.303Z,19.93
2019-03-04T10:23:16.779Z,24.30
2019-03-04T10:25:49.557Z,20.03
2019-03-04T10:28:21.994Z,28.50
2019-03-04T10:30:54.598Z,23.50
2019-03-04T10:33:27.166Z,76.47
2019-03-04T10:35:59.761Z,50.27
2019-03-04T10:38:32.444Z,22.67
2019-03-04T10:41:05.026Z,25.23
2019-03-04T10:43:37.695Z,23.80
2019-03-04T10:46:10.201Z,24.73
2019-03-04T10:48:39.522Z,134.37
2019-03-04T10:51:08.861Z,26.97
2019-03-04T10:53:38.277Z,40.40
2019-03-04T10:56:07.651Z,59.43
2019-03-04T10:58:37.029Z,24.73
2019-03-04T11:01:06.380Z,19.53
2019-03-04T11:03:35.732Z,25.60
2019-03-04T11:06:05.086Z,35.33
2019-03-04T11:08:34.478Z,71.20
2019-03-04T11:11:04.600Z,30.23
2019-03-04T11:13:33.892Z,33.30
2019-03-04T11:16:03.304Z,30.87
2019-03-04T11:18:33.610Z,37.10
2019-03-04T11:21:02.912Z,29.90
2019-03-04T11:23:32.209Z,30.20
2019-03-04T11:26:01.513Z,46.30
2019-03-04T11:28:30.930Z,30.63
2019-03-04T11:31:00.168Z,41.07
2019-03-04T11:33:29.527Z,35.20
2019-03-04T11:35:58.884Z,25.83
2019-03-04T11:38:31.380Z,30.73
2019-03-04T11:41:00.777Z,22.77
2019-03-04T11:43:30.208Z,25.50
2019-03-04T11:45:59.588Z,25.13
2019-03-04T11:48:29.325Z,27.17
2019-03-04T11:50:58.824Z,31.23
2019-03-04T11:53:28.326Z,19.43
2019-03-04T11:55:57.593Z,32.03
2019-03-04T11:58:26.943Z,22.83
2019-03-04T12:00:59.304Z,29.83
2019-03-04T12:03:28.795Z,29.60
2019-03-04T12:05:59.190Z,29.87
2019-03-04T12:08:28.538Z,20.40
2019-03-04T12:10:58.048Z,34.17
2019-03-04T12:13:27.291Z,38.60
2019-03-04T12:15:56.737Z,23.70
2019-03-04T12:18:26.501Z,24.47
2019-03-04T12:20:55.916Z,22.87
2019-03-04T12:23:25.258Z,22.37
2019-03-04T12:25:54.655Z,25.37
2019-03-04T12:28:24.601Z,21.47
2019-03-04T12:30:54.081Z,26.77
2019-03-04T12:33:23.478Z,22.83
2019-03-04T12:35:52.916Z,29.60
2019-03-04T12:38:22.273Z,18.37
2019-03-04T12:40:51.616Z,55.23
2019-03-04T12:43:20.874Z,37.03
2019-03-04T12:45:50.097Z,19.70
2019-03-04T12:48:19.408Z,35.77
2019-03-04T12:50:48.799Z,18.53
2019-03-04T12:53:18.111Z,23.83
2019-03-04T12:55:47.424Z,28.93
2019-03-04T12:58:16.768Z,27.87
2019-03-04T13:00:46.019Z,29.37
2019-03-04T13:03:18.189Z,21.73
2019-03-04T13:05:47.577Z,46.27
2019-03-04T13:08:17.020Z,23.83
2019-03-04T13:10:46.328Z,19.13
2019-03-04T13:13:17.492Z,22.20
2019-03-04T13:15:48.333Z,51.40
2019-03-04T13:18:17.641Z,25.68
2019-03-04T13:20:46.934Z,15.70
2019-03-04T13:23:16.330Z,44.38
2019-03-04T13:25:45.734Z,24.90
2019-03-04T13:28:15.070Z,15.40
2019-03-04T13:30:44.440Z,15.23
2019-03-04T13:33:13.834Z,18.47
2019-03-04T13:35:44.254Z,38.80
2019-03-04T13:38:13.601Z,24.87
2019-03-04T13:40:43.038Z,13.63
2019-03-04T13:43:12.508Z,24.93
2019-03-04T13:45:41.806Z,47.23
2019-03-04T13:48:11.226Z,36.03
2019-03-04T13:50:40.635Z,19.93
2019-03-04T13:53:09.929Z,18.63
2019-03-04T13:55:39.236Z,21.97
2019-03-04T13:58:08.600Z,17.57
2019-03-04T14:00:40.536Z,34.67
2019-03-04T14:03:11.373Z,36.83
2019-03-04T14:05:40.852Z,21.43
2019-03-04T14:08:10.256Z,20.30
2019-03-04T14:10:42.657Z,29.77
2019-03-04T14:13:12.471Z,87.10
2019-03-04T14:15:44.604Z,39.47
2019-03-04T14:18:13.966Z,17.00
2019-03-04T14:20:43.248Z,25.77
2019-03-04T14:23:12.623Z,24.87
2019-03-04T14:25:42.538Z,14.83
2019-03-04T14:28:11.828Z,17.43
2019-03-04T14:30:41.169Z,14.63
2019-03-04T14:33:10.460Z,18.20
2019-03-04T14:35:39.799Z,34.43
2019-03-04T14:38:09.254Z,15.87
2019-03-04T14:40:38.659Z,19.97
2019-03-04T14:43:08.060Z,188.77
2019-03-04T14:45:37.446Z,56.87
2019-03-04T14:48:06.808Z,30.30
2019-03-04T14:50:36.178Z,13.97
2019-03-04T14:53:05.493Z,29.27
2019-03-04T14:55:37.053Z,21.53
2019-03-04T14:58:06.413Z,16.20
2019-03-04T15:00:37.142Z,23.27
2019-03-04T15:03:06.742Z,21.80
2019-03-04T15:05:36.673Z,30.70
2019-03-04T15:08:06.160Z,21.23
2019-03-04T15:10:35.486Z,19.23
2019-03-04T15:13:04.867Z,24.10
2019-03-04T15:15:35.291Z,28.03
2019-03-04T15:18:06.011Z,41.67
2019-03-04T15:20:35.344Z,27.80
2019-03-04T15:23:04.763Z,35.13
2019-03-04T15:25:36.956Z,32.57
2019-03-04T15:28:09.828Z,28.70
2019-03-04T15:30:41.057Z,50.33
2019-03-04T15:33:17.473Z,37.07
2019-03-04T15:35:41.478Z,46.73
2019-03-04T15:38:10.771Z,44.97
2019-03-04T15:40:40.062Z,38.70
2019-03-04T15:43:09.546Z,61.73
2019-03-04T15:45:40.519Z,87.03
2019-03-04T15:48:09.821Z,55.63
2019-03-04T15:50:39.268Z,38.93
2019-03-04T15:53:09.745Z,31.53
2019-03-04T15:55:40.102Z,35.60
2019-03-04T15:58:09.462Z,29.27
2019-03-04T16:00:38.857Z,60.37
2019-03-04T16:03:08.185Z,54.97
2019-03-04T16:05:37.586Z,39.53
2019-03-04T16:08:08.139Z,32.43
2019-03-04T16:10:38.539Z,46.90
2019-03-04T16:13:08.763Z,193.67
2019-03-04T16:15:41.023Z,54.03
2019-03-04T16:18:10.423Z,66.53
2019-03-04T16:20:39.931Z,33.27
2019-03-04T16:23:09.232Z,42.67
2019-03-04T16:25:38.533Z,39.67
2019-03-04T16:28:11.157Z,34.87
2019-03-04T16:30:40.616Z,39.73
2019-03-04T16:33:10.021Z,67.47
2019-03-04T16:35:39.315Z,44.63
2019-03-04T16:38:08.656Z,42.10
2019-03-04T16:40:38.979Z,37.10
2019-03-04T16:43:09.423Z,48.00
2019-03-04T16:45:38.767Z,93.60
2019-03-04T16:48:08.075Z,57.83
2019-03-04T16:50:39.770Z,38.80
2019-03-04T16:53:12.707Z,41.57
2019-03-04T16:55:41.993Z,39.23
2019-03-04T16:58:11.308Z,42.47
2019-03-04T17:00:40.817Z,44.90
2019-03-04T17:03:12.698Z,55.13
2019-03-04T17:05:42.069Z,53.83
2019-03-04T17:08:11.389Z,44.93
2019-03-04T17:10:40.821Z,42.53
2019-03-04T17:13:10.169Z,53.70
2019-03-04T17:15:39.578Z,268.37
2019-03-04T17:18:08.958Z,75.80
2019-03-04T17:20:38.290Z,44.83
2019-03-04T17:23:09.691Z,39.13
2019-03-04T17:25:39.141Z,63.17
2019-03-04T17:28:08.465Z,56.10
2019-03-04T17:30:37.764Z,43.80
2019-03-04T17:33:07.147Z,69.43
2019-03-04T17:35:36.536Z,67.87
2019-03-04T17:38:06.043Z,61.37
2019-03-04T17:40:35.446Z,46.50
2019-03-04T17:43:04.745Z,59.00
2019-03-04T17:45:34.280Z,77.77
2019-03-04T17:48:03.616Z,71.43
2019-03-04T17:50:35.535Z,51.33
2019-03-04T17:53:07.786Z,62.30
2019-03-04T17:55:37.167Z,64.03
2019-03-04T17:58:06.825Z,39.57
2019-03-04T18:00:37.933Z,50.07
2019-03-04T18:03:07.334Z,44.27
2019-03-04T18:05:36.674Z,73.80
2019-03-04T18:08:06.039Z,71.50
2019-03-04T18:10:35.346Z,55.37
2019-03-04T18:13:07.036Z,52.17
2019-03-04T18:15:38.550Z,355.43
2019-03-04T18:18:07.960Z,63.67
2019-03-04T18:20:37.237Z,48.87
2019-03-04T18:23:07.000Z,42.07
2019-03-04T18:25:39.456Z,43.27
2019-03-04T18:28:12.049Z,39.23
2019-03-04T18:30:44.788Z,41.00
2019-03-04T18:33:17.569Z,38.87
2019-03-04T18:35:50.242Z,98.20
2019-03-04T18:38:22.935Z,190.27
2019-03-04T18:40:55.679Z,78.13
2019-03-04T18:43:28.271Z,38.70
2019-03-04T18:46:00.967Z,44.87
2019-03-04T18:48:33.671Z,73.63
2019-03-04T18:51:02.975Z,38.87
2019-03-04T18:53:32.395Z,39.43
2019-03-04T18:56:01.653Z,31.30
2019-03-04T18:58:31.050Z,40.50
2019-03-04T19:01:00.457Z,33.30
2019-03-04T19:03:29.863Z,74.07
2019-03-04T19:06:00.384Z,46.77
2019-03-04T19:08:29.790Z,33.43
2019-03-04T19:10:59.120Z,48.87
2019-03-04T19:13:28.592Z,40.50
2019-03-04T19:15:57.963Z,49.73
2019-03-04T19:18:31.482Z,63.87
2019-03-04T19:21:01.736Z,68.23
2019-03-04T19:23:32.331Z,36.57
2019-03-04T19:26:02.252Z,46.10
2019-03-04T19:28:31.934Z,85.87
2019-03-04T19:31:01.162Z,53.20
2019-03-04T19:33:34.176Z,112.30
2019-03-04T19:36:04.273Z,76.80
2019-03-04T19:38:34.148Z,50.97
2019-03-04T19:41:05.706Z,35.70
2019-03-04T19:43:36.951Z,49.87
2019-03-04T19:46:08.472Z,52.73
2019-03-04T19:48:38.279Z,65.27
2019-03-04T19:51:08.717Z,332.33
2019-03-04T19:53:38.358Z,338.03
2019-03-04T19:56:09.286Z,137.37
2019-03-04T19:58:41.359Z,62.00
2019-03-04T20:01:11.502Z,52.70
2019-03-04T20:03:41.082Z,76.93
2019-03-04T20:06:11.268Z,467.50
2019-03-04T20:08:42.380Z,561.87
2019-03-04T20:11:12.182Z,682.93
2019-03-04T20:13:42.318Z,539.63
2019-03-04T20:16:17.394Z,41.43
2019-03-04T20:18:48.725Z,57.33
2019-03-04T20:21:18.218Z,83.83
2019-03-04T20:23:47.653Z,183.20
2019-03-04T20:26:17.199Z,46.60
2019-03-04T20:28:46.477Z,67.87
2019-03-04T20:31:16.962Z,382.07
2019-03-04T20:33:47.074Z,61.07
2019-03-04T20:36:19.313Z,78.87
2019-03-04T20:38:53.548Z,853.17
2019-03-04T20:41:23.329Z,1113.43
2019-03-04T20:43:52.899Z,521.20
2019-03-04T20:46:24.671Z,191.70
2019-03-04T20:48:55.489Z,50.23
2019-03-04T20:51:25.277Z,91.50
2019-03-04T20:53:55.161Z,104.87
2019-03-04T20:56:25.359Z,48.90
2019-03-04T20:58:54.790Z,85.83
2019-03-04T21:01:28.133Z,122.90
2019-03-04T21:03:59.558Z,89.87
2019-03-04T21:06:32.889Z,80.40
2019-03-04T21:09:08.707Z,118.93
2019-03-04T21:11:40.467Z,55.90
2019-03-04T21:14:11.351Z,88.57
2019-03-04T21:16:40.965Z,39.60
2019-03-04T21:19:11.541Z,69.47
2019-03-04T21:21:42.342Z,96.53
2019-03-04T21:24:11.960Z,91.60
2019-03-04T21:26:43.611Z,54.47
2019-03-04T21:29:17.165Z,88.73
2019-03-04T21:31:50.617Z,81.17
2019-03-04T21:34:23.735Z,103.13
2019-03-04T21:36:59.617Z,75.57
2019-03-04T21:39:35.511Z,54.00
2019-03-04T21:42:08.774Z,54.50
2019-03-04T21:44:41.328Z,82.00
2019-03-04T21:47:13.988Z,115.03
2019-03-04T21:49:47.120Z,74.17
2019-03-04T21:52:20.756Z,58.53
2019-03-04T21:54:51.176Z,66.33
2019-03-04T21:57:25.089Z,73.23
2019-03-04T21:59:55.043Z,77.67
2019-03-04T22:02:27.751Z,78.33
2019-03-04T22:04:58.971Z,41.43
2019-03-04T22:07:28.331Z,39.23
2019-03-04T22:09:58.033Z,46.83
2019-03-04T22:12:28.232Z,44.13
2019-03-04T22:14:57.585Z,42.57
2019-03-04T22:17:27.963Z,45.87
2019-03-04T22:19:57.410Z,53.63
2019-03-04T22:22:26.767Z,39.40
2019-03-04T22:24:56.063Z,57.43
2019-03-04T22:27:25.369Z,148.00
2019-03-04T22:29:54.780Z,63.70
2019-03-04T22:32:24.139Z,46.90
2019-03-04T22:34:53.596Z,41.37
2019-03-04T22:37:22.857Z,40.03
2019-03-04T22:39:52.446Z,39.57
2019-03-04T22:42:21.782Z,50.10
2019-03-04T22:44:51.099Z,48.40
2019-03-04T22:47:20.492Z,39.20
2019-03-04T22:49:50.942Z,43.47
2019-03-04T22:52:20.418Z,36.13
2019-03-04T22:54:49.768Z,45.27
2019-03-04T22:57:19.134Z,54.03
2019-03-04T22:59:48.435Z,36.03
2019-03-04T23:02:17.748Z,10.60
2019-03-04T23:04:47.126Z,8.87
2019-03-04T23:07:17.455Z,17.23
2019-03-04T23:09:50.077Z,8.83
2019-03-04T23:12:22.614Z,17.00
2019-03-04T23:14:52.240Z,6.03
2019-03-04T23:17:21.592Z,4.87
2019-03-04T23:19:50.905Z,4.70
2019-03-04T23:22:20.212Z,4.83
2019-03-04T23:24:49.616Z,11.77
2019-03-04T23:27:19.047Z,14.37
2019-03-04T23:29:48.397Z,10.00
2019-03-04T23:32:17.612Z,4.07
2019-03-04T23:34:47.119Z,4.13
2019-03-04T23:37:16.465Z,3.90
2019-03-04T23:39:45.684Z,14.37
2019-03-04T23:42:15.047Z,11.87
2019-03-04T23:44:44.377Z,6.00
2019-03-04T23:47:13.676Z,9.17
2019-03-04T23:49:43.027Z,6.70
2019-03-04T23:52:12.315Z,5.17
2019-03-04T23:54:41.608Z,11.80
2019-03-04T23:57:10.899Z,37.73
2019-03-04T23:59:40.210Z,111.70
